createdAt,value
2023-01-30T00:03:24.689Z,9.10
2023-01-30T00:05:50.686Z,8.60
2023-01-30T00:08:17.134Z,9.20
2023-01-30T00:10:43.552Z,7.90
2023-01-30T00:13:09.989Z,9.00
2023-01-30T00:15:36.755Z,8.90
2023-01-30T00:18:03.391Z,10.00
2023-01-30T00:20:29.643Z,7.10
2023-01-30T00:23:00.815Z,7.20
2023-01-30T00:25:27.903Z,7.50
2023-01-30T00:27:53.912Z,7.60
2023-01-30T00:30:20.254Z,7.50
2023-01-30T00:32:46.276Z,7.00
2023-01-30T00:35:12.281Z,7.50
2023-01-30T00:37:38.347Z,9.10
2023-01-30T00:40:04.830Z,8.50
2023-01-30T00:42:49.483Z,8.60
2023-01-30T00:45:34.404Z,9.00
2023-01-30T00:48:00.564Z,8.50
2023-01-30T00:50:41.691Z,9.70
2023-01-30T00:53:15.697Z,9.20
2023-01-30T00:55:42.650Z,9.90
2023-01-30T00:58:09.218Z,9.30
2023-01-30T01:00:35.604Z,9.20
2023-01-30T01:03:01.612Z,9.70
2023-01-30T01:05:28.230Z,8.70
2023-01-30T01:07:55.015Z,9.30
2023-01-30T01:10:23.035Z,10.30
2023-01-30T01:12:53.272Z,11.50
2023-01-30T01:15:20.923Z,10.40
2023-01-30T01:17:48.596Z,10.60
2023-01-30T01:20:15.173Z,8.80
2023-01-30T01:22:41.193Z,9.20
2023-01-30T01:25:09.452Z,9.80
2023-01-30T01:27:36.198Z,9.60
2023-01-30T01:30:02.466Z,9.60
2023-01-30T01:32:28.623Z,10.10
2023-01-30T01:34:54.536Z,9.40
2023-01-30T01:37:20.434Z,8.80
2023-01-30T01:40:05.115Z,8.30
2023-01-30T01:42:35.031Z,10.40
2023-01-30T01:45:16.825Z,11.20
2023-01-30T01:47:56.968Z,9.90
2023-01-30T01:50:29.104Z,11.80
2023-01-30T01:52:58.928Z,8.00
2023-01-30T01:55:26.542Z,7.40
2023-01-30T01:58:04.061Z,7.80
2023-01-30T02:00:31.338Z,7.60
2023-01-30T02:03:01.979Z,7.50
2023-01-30T02:05:36.095Z,8.00
2023-01-30T02:08:32.918Z,7.10
2023-01-30T02:11:36.765Z,6.60
2023-01-30T02:14:05.121Z,6.90
2023-01-30T02:16:31.098Z,7.20
2023-01-30T02:18:57.453Z,7.00
2023-01-30T02:21:50.644Z,7.20
2023-01-30T02:24:30.627Z,7.00
2023-01-30T02:27:27.333Z,7.30
2023-01-30T02:30:02.728Z,8.10
2023-01-30T02:32:48.951Z,6.60
2023-01-30T02:35:27.676Z,8.00
2023-01-30T02:38:20.580Z,7.00
2023-01-30T02:41:20.029Z,7.50
2023-01-30T02:44:07.890Z,8.00
2023-01-30T02:46:49.815Z,7.00
2023-01-30T02:49:23.254Z,7.60
2023-01-30T02:51:50.729Z,8.10
2023-01-30T02:54:16.931Z,7.20
2023-01-30T02:56:45.573Z,7.50
2023-01-30T02:59:15.189Z,7.40
2023-01-30T03:01:53.404Z,5.90
2023-01-30T03:04:57.877Z,5.80
2023-01-30T03:07:34.541Z,5.70
2023-01-30T03:10:05.995Z,6.40
2023-01-30T03:12:48.231Z,5.70
2023-01-30T03:15:27.788Z,6.10
2023-01-30T03:17:54.311Z,5.30
2023-01-30T03:20:21.077Z,5.70
2023-01-30T03:22:47.247Z,5.90
2023-01-30T03:25:19.123Z,5.60
2023-01-30T03:27:45.920Z,5.60
2023-01-30T03:30:12.352Z,5.20
2023-01-30T03:32:38.288Z,5.60
2023-01-30T03:35:04.641Z,6.60
2023-01-30T03:37:31.006Z,6.00
2023-01-30T03:39:58.259Z,6.30
2023-01-30T03:42:24.731Z,5.70
2023-01-30T03:44:50.836Z,5.80
2023-01-30T03:47:16.771Z,5.40
2023-01-30T03:49:42.834Z,6.30
2023-01-30T03:52:08.847Z,5.40
2023-01-30T03:54:34.814Z,5.80
2023-01-30T03:57:00.752Z,5.70
2023-01-30T03:59:26.855Z,5.60
2023-01-30T04:01:59.006Z,5.60
2023-01-30T04:04:24.990Z,5.10
2023-01-30T04:06:51.177Z,5.30
2023-01-30T04:09:17.255Z,5.50
2023-01-30T04:11:45.588Z,5.50
2023-01-30T04:14:11.701Z,5.60
2023-01-30T04:16:46.438Z,5.10
2023-01-30T04:19:38.722Z,4.80
2023-01-30T04:22:04.840Z,5.30
2023-01-30T04:24:30.842Z,4.90
2023-01-30T04:26:57.270Z,5.30
2023-01-30T04:29:24.494Z,4.80
2023-01-30T04:31:51.472Z,5.30
2023-01-30T04:34:20.976Z,4.50
2023-01-30T04:36:46.940Z,5.40
2023-01-30T04:39:13.013Z,6.00
2023-01-30T04:41:39.804Z,5.60
2023-01-30T04:44:05.907Z,5.40
2023-01-30T04:46:39.780Z,5.20
2023-01-30T04:49:05.806Z,4.80
2023-01-30T04:51:32.012Z,5.60
2023-01-30T04:53:58.658Z,5.10
2023-01-30T04:56:24.597Z,4.90
2023-01-30T04:58:52.211Z,4.60
2023-01-30T05:01:21.390Z,4.80
2023-01-30T05:03:53.220Z,4.50
2023-01-30T05:06:20.383Z,4.40
2023-01-30T05:08:54.346Z,4.60
2023-01-30T05:11:21.790Z,4.80
2023-01-30T05:13:48.689Z,4.60
2023-01-30T05:16:15.835Z,4.30
2023-01-30T05:18:42.590Z,3.90
2023-01-30T05:21:14.119Z,5.00
2023-01-30T05:23:40.514Z,4.90
2023-01-30T05:26:06.633Z,4.30
2023-01-30T05:28:33.281Z,4.20
2023-01-30T05:31:08.234Z,4.20
2023-01-30T05:33:34.495Z,3.90
2023-01-30T05:36:01.016Z,4.70
2023-01-30T05:38:27.623Z,4.90
2023-01-30T05:41:05.501Z,4.70
2023-01-30T05:43:32.828Z,4.40
2023-01-30T05:46:00.341Z,4.10
2023-01-30T05:48:28.084Z,4.70
2023-01-30T05:50:56.500Z,4.90
2023-01-30T05:53:25.938Z,4.40
2023-01-30T05:55:58.762Z,4.30
2023-01-30T05:58:25.580Z,4.40
2023-01-30T06:00:51.832Z,4.70
2023-01-30T06:03:18.101Z,4.80
2023-01-30T06:05:44.053Z,4.20
2023-01-30T06:08:10.264Z,3.80
2023-01-30T06:10:36.601Z,4.70
2023-01-30T06:13:03.145Z,4.70
2023-01-30T06:15:29.711Z,4.90
2023-01-30T06:17:55.663Z,4.50
2023-01-30T06:20:21.576Z,6.20
2023-01-30T06:22:48.474Z,5.70
2023-01-30T06:25:14.875Z,4.80
2023-01-30T06:27:42.635Z,5.20
2023-01-30T06:30:09.285Z,5.40
2023-01-30T06:32:35.244Z,4.70
2023-01-30T06:35:01.250Z,5.10
2023-01-30T06:37:27.216Z,5.90
2023-01-30T06:39:53.208Z,5.30
2023-01-30T06:42:19.140Z,5.90
2023-01-30T06:44:45.070Z,5.90
2023-01-30T06:47:11.049Z,5.80
2023-01-30T06:49:37.157Z,7.10
2023-01-30T06:52:03.300Z,6.20
2023-01-30T06:54:29.466Z,5.80
2023-01-30T06:56:55.476Z,6.80
2023-01-30T06:59:21.433Z,5.90
2023-01-30T07:01:47.352Z,6.70
2023-01-30T07:04:13.270Z,5.10
2023-01-30T07:06:40.260Z,5.70
2023-01-30T07:09:06.382Z,5.20
2023-01-30T07:11:32.370Z,5.00
2023-01-30T07:13:58.387Z,6.50
2023-01-30T07:16:28.550Z,6.00
2023-01-30T07:18:57.917Z,7.20
2023-01-30T07:21:24.751Z,6.00
2023-01-30T07:23:50.671Z,5.60
2023-01-30T07:26:16.637Z,6.90
2023-01-30T07:28:42.635Z,9.30
2023-01-30T07:31:08.579Z,11.60
2023-01-30T07:33:34.524Z,9.10
2023-01-30T07:36:00.499Z,7.10
2023-01-30T07:38:26.389Z,5.40
2023-01-30T07:40:52.287Z,7.80
2023-01-30T07:43:18.393Z,9.40
2023-01-30T07:45:48.353Z,10.10
2023-01-30T07:48:17.253Z,11.10
2023-01-30T07:50:44.407Z,14.90
2023-01-30T07:53:13.253Z,13.50
2023-01-30T07:55:39.574Z,20.80
2023-01-30T07:58:05.496Z,20.70
2023-01-30T08:00:31.774Z,15.30
2023-01-30T08:02:58.310Z,12.20
2023-01-30T08:05:24.999Z,11.10
2023-01-30T08:07:50.956Z,12.00
2023-01-30T08:10:17.463Z,11.10
2023-01-30T08:12:43.583Z,11.20
2023-01-30T08:15:10.265Z,12.80
2023-01-30T08:17:36.332Z,12.80
2023-01-30T08:20:03.998Z,11.20
2023-01-30T08:22:29.925Z,12.30
2023-01-30T08:24:55.811Z,12.20
2023-01-30T08:27:21.804Z,10.40
2023-01-30T08:29:47.693Z,13.00
2023-01-30T08:32:14.901Z,12.90
2023-01-30T08:34:41.876Z,13.10
2023-01-30T08:37:07.867Z,13.50
2023-01-30T08:39:35.347Z,14.30
2023-01-30T08:42:02.366Z,15.60
2023-01-30T08:44:28.358Z,16.20
2023-01-30T08:46:54.507Z,16.70
2023-01-30T08:49:20.393Z,17.90
2023-01-30T08:51:46.435Z,20.20
2023-01-30T08:54:12.380Z,23.60
2023-01-30T08:56:38.301Z,24.40
2023-01-30T08:59:05.281Z,21.60
2023-01-30T09:01:31.380Z,31.90
2023-01-30T09:03:57.297Z,25.30
2023-01-30T09:06:26.104Z,21.40
2023-01-30T09:08:52.221Z,19.90
2023-01-30T09:11:18.195Z,17.30
2023-01-30T09:13:44.197Z,16.10
2023-01-30T09:16:10.827Z,17.40
2023-01-30T09:18:44.214Z,18.00
2023-01-30T09:21:12.086Z,17.10
2023-01-30T09:23:38.525Z,19.90
2023-01-30T09:26:05.505Z,18.80
2023-01-30T09:28:32.195Z,14.20
2023-01-30T09:30:59.485Z,18.00
2023-01-30T09:33:26.565Z,18.70
2023-01-30T09:35:52.805Z,18.70
2023-01-30T09:38:20.893Z,17.70
2023-01-30T09:41:06.256Z,16.90
2023-01-30T09:44:03.625Z,16.20
2023-01-30T09:46:42.322Z,16.00
2023-01-30T09:49:27.471Z,14.70
2023-01-30T09:52:05.492Z,14.20
2023-01-30T09:54:38.547Z,15.10
2023-01-30T09:57:20.576Z,15.10
2023-01-30T10:00:13.038Z,14.70
2023-01-30T10:02:53.526Z,11.50
2023-01-30T10:05:19.618Z,12.40
2023-01-30T10:08:04.239Z,12.30
2023-01-30T10:10:39.388Z,13.00
2023-01-30T10:13:23.024Z,13.40
2023-01-30T10:16:18.159Z,12.50
2023-01-30T10:19:10.634Z,11.90
2023-01-30T10:21:57.072Z,15.10
2023-01-30T10:24:52.251Z,12.90
2023-01-30T10:27:20.524Z,12.60
2023-01-30T10:29:52.433Z,13.20
2023-01-30T10:32:26.307Z,14.20
2023-01-30T10:34:56.200Z,13.70
2023-01-30T10:37:34.385Z,13.40
2023-01-30T10:40:12.930Z,13.70
2023-01-30T10:42:45.465Z,15.00
2023-01-30T10:45:16.504Z,11.00
2023-01-30T10:48:42.623Z,12.90
2023-01-30T10:51:45.740Z,11.70
2023-01-30T10:54:48.702Z,11.30
2023-01-30T10:57:26.965Z,9.90
2023-01-30T11:00:05.172Z,12.30
2023-01-30T11:02:49.034Z,11.40
2023-01-30T11:05:23.537Z,11.60
2023-01-30T11:07:49.619Z,11.00
2023-01-30T11:10:22.630Z,12.30
2023-01-30T11:12:56.066Z,11.80
2023-01-30T11:15:25.226Z,11.90
2023-01-30T11:18:40.430Z,10.20
2023-01-30T11:21:05.437Z,10.00
2023-01-30T11:23:31.308Z,11.60
2023-01-30T11:26:10.381Z,9.10
2023-01-30T11:28:43.329Z,12.00
2023-01-30T11:31:40.037Z,11.40
2023-01-30T11:34:15.956Z,11.10
2023-01-30T11:36:42.477Z,11.50
2023-01-30T11:39:11.506Z,12.90
2023-01-30T11:41:53.621Z,10.20
2023-01-30T11:44:28.653Z,10.80
2023-01-30T11:46:59.011Z,11.80
2023-01-30T11:49:48.159Z,14.20
2023-01-30T11:52:31.301Z,13.90
2023-01-30T11:55:07.804Z,11.60
2023-01-30T11:57:43.887Z,12.80
2023-01-30T12:00:47.817Z,13.80
2023-01-30T12:03:17.820Z,15.20
2023-01-30T12:05:46.379Z,14.10
2023-01-30T12:08:40.487Z,16.80
2023-01-30T12:11:31.382Z,14.10
2023-01-30T12:14:16.130Z,15.60
2023-01-30T12:17:36.421Z,14.60
2023-01-30T12:20:11.036Z,16.00
2023-01-30T12:23:25.083Z,16.50
2023-01-30T12:25:54.035Z,13.20
2023-01-30T12:28:25.113Z,13.20
2023-01-30T12:30:58.417Z,14.40
2023-01-30T12:33:47.233Z,12.40
2023-01-30T12:36:20.163Z,16.20
2023-01-30T12:38:57.680Z,13.90
2023-01-30T12:42:01.354Z,15.80
2023-01-30T12:44:46.821Z,15.60
2023-01-30T12:47:21.519Z,14.70
2023-01-30T12:50:35.699Z,15.50
2023-01-30T12:53:28.432Z,15.90
2023-01-30T12:56:22.082Z,14.00
2023-01-30T12:58:56.663Z,13.30
2023-01-30T13:01:28.938Z,13.10
2023-01-30T13:04:08.830Z,14.00
2023-01-30T13:06:57.253Z,15.50
2023-01-30T13:09:57.870Z,16.20
2023-01-30T13:12:48.754Z,15.70
2023-01-30T13:15:53.187Z,16.10
2023-01-30T13:18:27.877Z,16.70
2023-01-30T13:24:29.386Z,16.00
2023-01-30T13:26:59.748Z,14.90
2023-01-30T13:29:32.237Z,14.50
2023-01-30T13:32:02.020Z,14.20
2023-01-30T13:34:38.883Z,16.60
2023-01-30T13:37:14.531Z,18.50
2023-01-30T13:39:52.951Z,14.80
2023-01-30T13:42:45.496Z,14.30
2023-01-30T13:45:23.605Z,16.20
2023-01-30T13:48:12.682Z,15.70
2023-01-30T13:51:16.316Z,16.40
2023-01-30T13:53:51.458Z,10.00
2023-01-30T13:56:42.040Z,14.40
2023-01-30T13:59:29.604Z,14.40
2023-01-30T14:01:58.880Z,16.70
2023-01-30T14:04:40.300Z,16.90
2023-01-30T14:07:12.357Z,17.10
2023-01-30T14:10:11.072Z,17.00
2023-01-30T14:12:51.519Z,15.80
2023-01-30T14:15:20.977Z,15.70
2023-01-30T14:18:19.215Z,14.50
2023-01-30T14:20:47.299Z,18.70
2023-01-30T14:23:36.685Z,13.50
2023-01-30T14:26:02.954Z,15.60
2023-01-30T14:28:28.937Z,15.80
2023-01-30T14:31:00.671Z,16.30
2023-01-30T14:33:26.651Z,17.70
2023-01-30T14:36:01.965Z,19.50
2023-01-30T14:38:32.991Z,16.40
2023-01-30T14:40:59.337Z,14.90
2023-01-30T14:43:25.321Z,15.90
2023-01-30T14:45:52.201Z,17.50
2023-01-30T14:48:46.335Z,18.30
2023-01-30T14:51:39.900Z,17.50
2023-01-30T14:54:12.183Z,18.90
2023-01-30T14:56:47.011Z,20.60
2023-01-30T14:59:15.638Z,20.10
2023-01-30T15:02:12.402Z,18.90
2023-01-30T15:04:46.114Z,16.90
2023-01-30T15:07:40.220Z,18.00
2023-01-30T15:10:13.223Z,20.80
2023-01-30T15:13:16.451Z,20.00
2023-01-30T15:16:01.261Z,18.90
2023-01-30T15:18:29.957Z,18.90
2023-01-30T15:21:21.584Z,18.90
2023-01-30T15:24:12.353Z,20.60
2023-01-30T15:27:06.477Z,19.40
2023-01-30T15:30:00.526Z,21.90
2023-01-30T15:32:29.746Z,21.10
2023-01-30T15:35:18.217Z,21.60
2023-01-30T15:37:50.465Z,20.60
2023-01-30T15:40:19.410Z,19.60
2023-01-30T15:42:50.757Z,19.90
2023-01-30T15:45:35.268Z,20.90
2023-01-30T15:48:17.159Z,22.40
2023-01-30T15:50:53.178Z,23.20
2023-01-30T15:53:24.881Z,22.00
2023-01-30T15:55:52.829Z,21.90
2023-01-30T15:58:21.411Z,21.00
2023-01-30T16:00:50.016Z,20.40
2023-01-30T16:03:21.876Z,20.90
2023-01-30T16:05:56.598Z,22.00
2023-01-30T16:08:26.587Z,22.00
2023-01-30T16:10:53.141Z,24.70
2023-01-30T16:13:22.406Z,21.20
2023-01-30T16:15:53.969Z,22.80
2023-01-30T16:18:38.137Z,21.50
2023-01-30T16:21:09.271Z,22.90
2023-01-30T16:23:42.689Z,23.80
2023-01-30T16:26:17.171Z,26.40
2023-01-30T16:28:44.331Z,22.50
2023-01-30T16:31:11.188Z,24.60
2023-01-30T16:33:37.730Z,23.30
2023-01-30T16:36:25.166Z,23.40
2023-01-30T16:38:52.984Z,21.90
2023-01-30T16:41:32.932Z,21.40
2023-01-30T16:44:17.617Z,22.90
2023-01-30T16:46:48.427Z,23.00
2023-01-30T16:49:24.259Z,22.80
2023-01-30T16:52:00.602Z,23.30
2023-01-30T16:54:29.453Z,22.80
2023-01-30T16:56:58.639Z,23.70
2023-01-30T16:59:34.987Z,22.20
2023-01-30T17:02:03.652Z,22.60
2023-01-30T17:04:35.144Z,22.40
2023-01-30T17:07:04.056Z,23.70
2023-01-30T17:09:33.119Z,20.20
2023-01-30T17:11:59.146Z,20.30
2023-01-30T17:14:32.211Z,20.00
2023-01-30T17:17:09.222Z,18.10
2023-01-30T17:19:35.938Z,21.00
2023-01-30T17:22:04.889Z,19.40
2023-01-30T17:24:31.065Z,20.60
2023-01-30T17:27:01.907Z,28.20
2023-01-30T17:29:41.892Z,28.00
2023-01-30T17:32:11.421Z,27.00
2023-01-30T17:34:40.251Z,25.50
2023-01-30T17:37:13.676Z,25.10
2023-01-30T17:39:39.669Z,25.30
2023-01-30T17:42:09.383Z,24.40
2023-01-30T17:44:35.360Z,22.80
2023-01-30T17:47:01.384Z,22.90
2023-01-30T17:49:27.270Z,25.10
2023-01-30T17:51:54.759Z,22.40
2023-01-30T17:54:21.899Z,25.10
2023-01-30T17:56:52.195Z,23.30
2023-01-30T17:59:19.394Z,24.40
2023-01-30T18:01:50.370Z,24.60
2023-01-30T18:04:17.190Z,29.80
2023-01-30T18:06:45.817Z,26.10
2023-01-30T18:09:14.616Z,26.70
2023-01-30T18:11:40.718Z,26.80
2023-01-30T18:14:07.311Z,25.00
2023-01-30T18:16:33.548Z,26.10
2023-01-30T18:19:04.556Z,24.70
2023-01-30T18:21:33.237Z,26.60
2023-01-30T18:23:59.900Z,26.40
2023-01-30T18:26:26.576Z,23.00
2023-01-30T18:28:53.359Z,27.40
2023-01-30T18:31:22.988Z,26.10
2023-01-30T18:33:49.144Z,23.90
2023-01-30T18:36:17.081Z,24.60
2023-01-30T18:38:43.775Z,22.70
2023-01-30T18:41:13.053Z,28.70
2023-01-30T18:43:39.246Z,25.40
2023-01-30T18:46:11.517Z,24.30
2023-01-30T18:48:38.269Z,22.60
2023-01-30T18:51:05.260Z,23.50
2023-01-30T18:53:31.266Z,24.90
2023-01-30T18:55:57.816Z,24.00
2023-01-30T18:58:23.762Z,25.30
2023-01-30T19:00:49.785Z,21.20
2023-01-30T19:03:16.332Z,20.90
2023-01-30T19:05:42.321Z,21.50
2023-01-30T19:08:09.777Z,22.20
2023-01-30T19:10:35.719Z,22.70
2023-01-30T19:13:20.197Z,24.60
2023-01-30T19:15:46.224Z,24.40
2023-01-30T19:18:12.191Z,26.80
2023-01-30T19:20:38.127Z,28.40
2023-01-30T19:23:04.006Z,29.70
2023-01-30T19:25:30.003Z,27.70
2023-01-30T19:27:56.888Z,25.20
2023-01-30T19:30:23.110Z,25.70
2023-01-30T19:32:51.336Z,23.50
2023-01-30T19:35:17.772Z,27.60
2023-01-30T19:37:44.021Z,25.00
2023-01-30T19:40:10.900Z,25.70
2023-01-30T19:42:38.771Z,27.20
2023-01-30T19:45:07.096Z,27.80
2023-01-30T19:47:33.773Z,26.20
2023-01-30T19:49:59.704Z,28.10
2023-01-30T19:52:25.924Z,25.30
2023-01-30T19:54:51.979Z,24.00
2023-01-30T19:57:17.997Z,25.30
2023-01-30T19:59:44.604Z,27.30
2023-01-30T20:02:11.122Z,26.20
2023-01-30T20:04:38.948Z,28.60
2023-01-30T20:07:04.992Z,24.90
2023-01-30T20:09:31.970Z,25.00
2023-01-30T20:11:57.940Z,27.30
2023-01-30T20:14:23.950Z,29.60
2023-01-30T20:16:50.376Z,25.70
2023-01-30T20:19:16.760Z,25.30
2023-01-30T20:21:44.495Z,28.40
2023-01-30T20:26:39.134Z,24.80
2023-01-30T20:29:07.951Z,30.60
2023-01-30T20:31:34.357Z,27.60
2023-01-30T20:34:01.968Z,27.80
2023-01-30T20:36:28.280Z,33.80
2023-01-30T20:38:55.819Z,27.70
2023-01-30T20:41:23.803Z,26.80
2023-01-30T20:43:52.352Z,27.40
2023-01-30T20:46:21.386Z,29.10
2023-01-30T20:48:48.006Z,26.00
2023-01-30T20:51:20.045Z,28.80
2023-01-30T20:53:48.296Z,28.50
2023-01-30T20:56:14.643Z,26.80
2023-01-30T20:58:40.892Z,24.20
2023-01-30T21:01:11.886Z,25.90
2023-01-30T21:03:38.320Z,25.10
2023-01-30T21:06:05.271Z,25.10
2023-01-30T21:08:31.539Z,28.00
2023-01-30T21:11:12.444Z,22.20
2023-01-30T21:13:38.615Z,22.40
2023-01-30T21:16:11.954Z,24.80
2023-01-30T21:18:40.480Z,24.30
2023-01-30T21:21:08.685Z,24.00
2023-01-30T21:23:35.689Z,21.80
2023-01-30T21:26:05.183Z,28.30
2023-01-30T21:28:31.491Z,32.60
2023-01-30T21:31:06.681Z,28.10
2023-01-30T21:33:33.488Z,26.70
2023-01-30T21:36:00.566Z,26.50
2023-01-30T21:38:46.433Z,29.90
2023-01-30T21:41:40.193Z,26.80
2023-01-30T21:44:06.521Z,26.30
2023-01-30T21:46:37.693Z,26.60
2023-01-30T21:49:04.511Z,27.10
2023-01-30T21:51:31.574Z,25.90
2023-01-30T21:53:59.505Z,23.20
2023-01-30T21:58:51.618Z,23.40
2023-01-30T22:01:17.966Z,23.20
2023-01-30T22:03:44.342Z,20.40
2023-01-30T22:06:10.882Z,24.30
2023-01-30T22:08:39.065Z,21.20
2023-01-30T22:11:11.002Z,24.10
2023-01-30T22:13:38.707Z,23.70
2023-01-30T22:18:33.568Z,26.30
2023-01-30T22:21:10.279Z,25.50
2023-01-30T22:23:41.393Z,26.00
2023-01-30T22:26:08.690Z,24.90
2023-01-30T22:28:36.233Z,25.80
2023-01-30T22:31:05.354Z,23.90
2023-01-30T22:33:32.275Z,24.20
2023-01-30T22:35:59.369Z,23.90
2023-01-30T22:38:26.195Z,24.70
2023-01-30T22:41:03.284Z,23.90
2023-01-30T22:43:31.011Z,23.90
2023-01-30T22:46:04.815Z,22.30
2023-01-30T22:48:32.018Z,25.00
2023-01-30T22:51:06.555Z,22.30
2023-01-30T22:53:34.094Z,22.40
2023-01-30T22:56:02.137Z,21.80
2023-01-30T22:58:28.656Z,21.60
2023-01-30T23:00:54.966Z,22.50
2023-01-30T23:03:20.860Z,23.00
2023-01-30T23:05:57.739Z,25.40
2023-01-30T23:08:25.679Z,25.30
2023-01-30T23:10:52.523Z,24.40
2023-01-30T23:13:19.002Z,24.40
2023-01-30T23:15:46.222Z,27.80
2023-01-30T23:18:32.525Z,24.30
2023-01-30T23:20:58.956Z,25.20
2023-01-30T23:23:25.837Z,24.50
2023-01-30T23:25:51.906Z,23.90
2023-01-30T23:28:17.811Z,23.20
2023-01-30T23:30:44.300Z,23.70
2023-01-30T23:33:10.308Z,22.60
2023-01-30T23:35:36.602Z,22.20
2023-01-30T23:38:14.866Z,22.80
2023-01-30T23:40:47.728Z,21.00
2023-01-30T23:43:14.921Z,22.90
2023-01-30T23:45:41.815Z,23.90
2023-01-30T23:48:08.453Z,21.10
2023-01-30T23:50:37.630Z,25.70
2023-01-30T23:53:05.988Z,26.60
2023-01-30T23:55:32.624Z,25.00
2023-01-30T23:57:59.418Z,25.60
